sensor_id;sensor_type;location;lat;lon;timestamp;temperature;humidity
11264;DHT22;5689;48.798;9.070;2023-04-03T00:01:11;3.60;99.90
11264;DHT22;5689;48.798;9.070;2023-04-03T00:03:39;3.60;99.90
11264;DHT22;5689;48.798;9.070;2023-04-03T00:06:08;3.70;99.90
11264;DHT22;5689;48.798;9.070;2023-04-03T00:08:39;3.90;99.90
11264;DHT22;5689;48.798;9.070;2023-04-03T00:11:08;3.90;99.90
11264;DHT22;5689;48.798;9.070;2023-04-03T00:13:38;3.90;99.90
11264;DHT22;5689;48.798;9.070;2023-04-03T00:16:07;3.80;99.90
11264;DHT22;5689;48.798;9.070;2023-04-03T00:18:35;3.80;99.90
11264;DHT22;5689;48.798;9.070;2023-04-03T00:21:04;3.80;99.90
11264;DHT22;5689;48.798;9.070;2023-04-03T00:23:33;3.80;99.90
11264;DHT22;5689;48.798;9.070;2023-04-03T00:26:03;3.80;99.90
11264;DHT22;5689;48.798;9.070;2023-04-03T00:28:31;3.80;99.90
11264;DHT22;5689;48.798;9.070;2023-04-03T00:30:59;3.90;99.90
11264;DHT22;5689;48.798;9.070;2023-04-03T00:33:27;3.80;99.90
11264;DHT22;5689;48.798;9.070;2023-04-03T00:35:55;3.80;99.90
11264;DHT22;5689;48.798;9.070;2023-04-03T00:38:23;3.80;99.90
11264;DHT22;5689;48.798;9.070;2023-04-03T00:40:51;3.70;99.90
11264;DHT22;5689;48.798;9.070;2023-04-03T00:43:23;3.70;99.90
11264;DHT22;5689;48.798;9.070;2023-04-03T00:45:54;3.50;99.90
11264;DHT22;5689;48.798;9.070;2023-04-03T00:48:26;3.60;99.90
11264;DHT22;5689;48.798;9.070;2023-04-03T00:50:57;3.50;99.90
11264;DHT22;5689;48.798;9.070;2023-04-03T00:53:28;3.60;99.90
11264;DHT22;5689;48.798;9.070;2023-04-03T00:55:59;3.50;99.90
11264;DHT22;5689;48.798;9.070;2023-04-03T00:58:34;3.50;99.90
11264;DHT22;5689;48.798;9.070;2023-04-03T01:01:05;3.60;99.90
11264;DHT22;5689;48.798;9.070;2023-04-03T01:03:34;3.50;99.90
11264;DHT22;5689;48.798;9.070;2023-04-03T01:06:04;3.40;99.90
11264;DHT22;5689;48.798;9.070;2023-04-03T01:08:33;3.50;99.90
11264;DHT22;5689;48.798;9.070;2023-04-03T01:11:02;3.50;99.90
11264;DHT22;5689;48.798;9.070;2023-04-03T01:13:33;3.50;99.90
11264;DHT22;5689;48.798;9.070;2023-04-03T01:16:03;3.50;99.90
11264;DHT22;5689;48.798;9.070;2023-04-03T01:18:33;3.50;99.90
11264;DHT22;5689;48.798;9.070;2023-04-03T01:21:30;3.40;99.90
11264;DHT22;5689;48.798;9.070;2023-04-03T01:24:28;3.40;99.90
11264;DHT22;5689;48.798;9.070;2023-04-03T01:26:59;3.40;99.90
11264;DHT22;5689;48.798;9.070;2023-04-03T01:29:29;3.30;99.90
11264;DHT22;5689;48.798;9.070;2023-04-03T01:31:59;3.40;99.90
11264;DHT22;5689;48.798;9.070;2023-04-03T01:34:30;3.40;99.90
11264;DHT22;5689;48.798;9.070;2023-04-03T01:36:59;3.40;99.90
11264;DHT22;5689;48.798;9.070;2023-04-03T01:39:27;3.50;99.90
11264;DHT22;5689;48.798;9.070;2023-04-03T01:41:56;3.40;99.90
11264;DHT22;5689;48.798;9.070;2023-04-03T01:44:33;3.40;99.90
11264;DHT22;5689;48.798;9.070;2023-04-03T01:47:05;3.40;99.90
11264;DHT22;5689;48.798;9.070;2023-04-03T01:49:34;3.40;99.90
11264;DHT22;5689;48.798;9.070;2023-04-03T01:52:03;3.50;99.90
11264;DHT22;5689;48.798;9.070;2023-04-03T01:54:31;3.50;99.90
11264;DHT22;5689;48.798;9.070;2023-04-03T01:56:59;3.50;99.90
11264;DHT22;5689;48.798;9.070;2023-04-03T01:59:28;3.50;99.90
11264;DHT22;5689;48.798;9.070;2023-04-03T02:01:56;3.40;99.90
11264;DHT22;5689;48.798;9.070;2023-04-03T02:04:26;3.60;99.90
11264;DHT22;5689;48.798;9.070;2023-04-03T02:06:54;3.60;99.90
11264;DHT22;5689;48.798;9.070;2023-04-03T02:09:22;3.70;99.90
11264;DHT22;5689;48.798;9.070;2023-04-03T02:11:51;3.60;99.90
11264;DHT22;5689;48.798;9.070;2023-04-03T02:14:19;3.40;99.90
11264;DHT22;5689;48.798;9.070;2023-04-03T02:16:48;3.40;99.90
11264;DHT22;5689;48.798;9.070;2023-04-03T02:19:16;3.40;99.90
11264;DHT22;5689;48.798;9.070;2023-04-03T02:21:45;3.40;99.90
11264;DHT22;5689;48.798;9.070;2023-04-03T02:24:14;3.40;99.90
11264;DHT22;5689;48.798;9.070;2023-04-03T02:26:42;3.40;99.90
11264;DHT22;5689;48.798;9.070;2023-04-03T02:29:10;3.40;99.90
11264;DHT22;5689;48.798;9.070;2023-04-03T02:31:39;3.40;99.90
11264;DHT22;5689;48.798;9.070;2023-04-03T02:34:07;3.50;99.90
11264;DHT22;5689;48.798;9.070;2023-04-03T02:36:36;3.40;99.90
11264;DHT22;5689;48.798;9.070;2023-04-03T02:39:09;3.30;99.90
11264;DHT22;5689;48.798;9.070;2023-04-03T02:41:37;3.40;99.90
11264;DHT22;5689;48.798;9.070;2023-04-03T02:44:12;3.40;99.90
11264;DHT22;5689;48.798;9.070;2023-04-03T02:46:40;3.50;99.90
11264;DHT22;5689;48.798;9.070;2023-04-03T02:49:08;3.30;99.90
11264;DHT22;5689;48.798;9.070;2023-04-03T02:51:36;3.40;99.90
11264;DHT22;5689;48.798;9.070;2023-04-03T02:54:05;3.30;99.90
11264;DHT22;5689;48.798;9.070;2023-04-03T02:56:37;3.30;99.90
11264;DHT22;5689;48.798;9.070;2023-04-03T02:59:05;3.30;99.90
11264;DHT22;5689;48.798;9.070;2023-04-03T03:01:36;3.40;99.90
11264;DHT22;5689;48.798;9.070;2023-04-03T03:04:04;3.30;99.90
11264;DHT22;5689;48.798;9.070;2023-04-03T03:06:32;3.30;99.90
11264;DHT22;5689;48.798;9.070;2023-04-03T03:09:00;3.40;99.90
11264;DHT22;5689;48.798;9.070;2023-04-03T03:11:28;3.20;99.90
11264;DHT22;5689;48.798;9.070;2023-04-03T03:13:58;3.10;99.90
11264;DHT22;5689;48.798;9.070;2023-04-03T03:16:26;3.20;99.90
11264;DHT22;5689;48.798;9.070;2023-04-03T03:18:56;3.20;99.90
11264;DHT22;5689;48.798;9.070;2023-04-03T03:21:24;3.10;99.90
11264;DHT22;5689;48.798;9.070;2023-04-03T03:23:52;3.10;99.90
11264;DHT22;5689;48.798;9.070;2023-04-03T03:26:20;3.00;99.90
11264;DHT22;5689;48.798;9.070;2023-04-03T03:28:48;3.10;99.90
11264;DHT22;5689;48.798;9.070;2023-04-03T03:31:18;3.10;99.90
11264;DHT22;5689;48.798;9.070;2023-04-03T03:33:46;3.10;99.90
11264;DHT22;5689;48.798;9.070;2023-04-03T03:36:14;3.10;99.90
11264;DHT22;5689;48.798;9.070;2023-04-03T03:38:42;3.10;99.90
11264;DHT22;5689;48.798;9.070;2023-04-03T03:41:10;3.10;99.90
11264;DHT22;5689;48.798;9.070;2023-04-03T03:43:41;3.20;99.90
11264;DHT22;5689;48.798;9.070;2023-04-03T03:46:10;3.20;99.90
11264;DHT22;5689;48.798;9.070;2023-04-03T03:48:40;3.30;99.90
11264;DHT22;5689;48.798;9.070;2023-04-03T03:51:08;3.40;99.90
11264;DHT22;5689;48.798;9.070;2023-04-03T03:53:37;3.40;99.90
11264;DHT22;5689;48.798;9.070;2023-04-03T03:56:09;3.40;99.90
11264;DHT22;5689;48.798;9.070;2023-04-03T03:58:39;3.40;99.90
11264;DHT22;5689;48.798;9.070;2023-04-03T04:01:07;3.20;99.90
11264;DHT22;5689;48.798;9.070;2023-04-03T04:03:45;3.20;99.90
11264;DHT22;5689;48.798;9.070;2023-04-03T04:06:18;3.20;99.90
11264;DHT22;5689;48.798;9.070;2023-04-03T04:08:48;3.30;99.90
11264;DHT22;5689;48.798;9.070;2023-04-03T04:11:16;3.30;99.90
11264;DHT22;5689;48.798;9.070;2023-04-03T04:13:46;3.20;99.90
11264;DHT22;5689;48.798;9.070;2023-04-03T04:16:16;3.20;99.90
11264;DHT22;5689;48.798;9.070;2023-04-03T04:18:46;3.20;99.90
11264;DHT22;5689;48.798;9.070;2023-04-03T04:21:14;3.30;99.90
11264;DHT22;5689;48.798;9.070;2023-04-03T04:23:44;3.20;99.90
11264;DHT22;5689;48.798;9.070;2023-04-03T04:26:13;3.30;99.90
11264;DHT22;5689;48.798;9.070;2023-04-03T04:28:41;3.30;99.90
11264;DHT22;5689;48.798;9.070;2023-04-03T04:31:09;3.30;99.90
11264;DHT22;5689;48.798;9.070;2023-04-03T04:33:38;3.30;99.90
11264;DHT22;5689;48.798;9.070;2023-04-03T04:36:09;3.30;99.90
11264;DHT22;5689;48.798;9.070;2023-04-03T04:38:37;3.30;99.90
11264;DHT22;5689;48.798;9.070;2023-04-03T04:41:06;3.50;99.90
11264;DHT22;5689;48.798;9.070;2023-04-03T04:43:34;3.50;99.90
11264;DHT22;5689;48.798;9.070;2023-04-03T04:46:04;3.50;99.90
11264;DHT22;5689;48.798;9.070;2023-04-03T04:48:37;3.50;99.90
11264;DHT22;5689;48.798;9.070;2023-04-03T04:51:06;3.60;99.90
11264;DHT22;5689;48.798;9.070;2023-04-03T04:53:37;3.50;99.90
11264;DHT22;5689;48.798;9.070;2023-04-03T04:56:07;3.50;99.90
11264;DHT22;5689;48.798;9.070;2023-04-03T04:58:37;3.50;99.90
11264;DHT22;5689;48.798;9.070;2023-04-03T05:01:08;3.40;99.90
11264;DHT22;5689;48.798;9.070;2023-04-03T05:03:45;3.40;99.90
11264;DHT22;5689;48.798;9.070;2023-04-03T05:06:15;3.40;99.90
11264;DHT22;5689;48.798;9.070;2023-04-03T05:08:45;3.30;99.90
11264;DHT22;5689;48.798;9.070;2023-04-03T05:11:14;3.30;99.90
11264;DHT22;5689;48.798;9.070;2023-04-03T05:13:43;3.30;99.90
11264;DHT22;5689;48.798;9.070;2023-04-03T05:16:13;3.40;99.90
11264;DHT22;5689;48.798;9.070;2023-04-03T05:18:41;3.40;99.90
11264;DHT22;5689;48.798;9.070;2023-04-03T05:21:16;3.50;99.90
11264;DHT22;5689;48.798;9.070;2023-04-03T05:23:48;3.60;99.90
11264;DHT22;5689;48.798;9.070;2023-04-03T05:26:17;3.70;99.90
11264;DHT22;5689;48.798;9.070;2023-04-03T05:28:47;3.60;99.90
11264;DHT22;5689;48.798;9.070;2023-04-03T05:31:15;3.60;99.90
11264;DHT22;5689;48.798;9.070;2023-04-03T05:33:43;3.60;99.90
11264;DHT22;5689;48.798;9.070;2023-04-03T05:36:16;3.60;99.90
11264;DHT22;5689;48.798;9.070;2023-04-03T05:38:48;3.70;99.90
11264;DHT22;5689;48.798;9.070;2023-04-03T05:41:18;3.70;99.90
11264;DHT22;5689;48.798;9.070;2023-04-03T05:43:47;3.60;99.90
11264;DHT22;5689;48.798;9.070;2023-04-03T05:46:17;3.50;99.90
11264;DHT22;5689;48.798;9.070;2023-04-03T05:48:50;3.60;99.90
11264;DHT22;5689;48.798;9.070;2023-04-03T05:51:23;3.80;99.90
11264;DHT22;5689;48.798;9.070;2023-04-03T05:54:00;3.80;99.90
11264;DHT22;5689;48.798;9.070;2023-04-03T05:56:30;3.90;99.90
11264;DHT22;5689;48.798;9.070;2023-04-03T05:58:58;4.00;99.90
11264;DHT22;5689;48.798;9.070;2023-04-03T06:01:27;3.90;99.90
11264;DHT22;5689;48.798;9.070;2023-04-03T06:03:56;3.90;99.90
11264;DHT22;5689;48.798;9.070;2023-04-03T06:06:25;4.10;99.90
11264;DHT22;5689;48.798;9.070;2023-04-03T06:08:56;4.10;99.90
11264;DHT22;5689;48.798;9.070;2023-04-03T06:11:24;4.20;99.90
11264;DHT22;5689;48.798;9.070;2023-04-03T06:13:52;4.40;99.90
11264;DHT22;5689;48.798;9.070;2023-04-03T06:16:20;4.40;99.90
11264;DHT22;5689;48.798;9.070;2023-04-03T06:18:49;4.40;99.90
11264;DHT22;5689;48.798;9.070;2023-04-03T06:21:17;4.30;99.90
11264;DHT22;5689;48.798;9.070;2023-04-03T06:23:45;4.40;99.90
11264;DHT22;5689;48.798;9.070;2023-04-03T06:26:15;4.60;99.90
11264;DHT22;5689;48.798;9.070;2023-04-03T06:28:43;4.60;99.90
11264;DHT22;5689;48.798;9.070;2023-04-03T06:31:11;4.30;99.90
11264;DHT22;5689;48.798;9.070;2023-04-03T06:33:39;4.30;99.90
11264;DHT22;5689;48.798;9.070;2023-04-03T06:36:09;4.00;99.90
11264;DHT22;5689;48.798;9.070;2023-04-03T06:38:38;4.20;99.90
11264;DHT22;5689;48.798;9.070;2023-04-03T06:41:06;4.30;99.90
11264;DHT22;5689;48.798;9.070;2023-04-03T06:43:35;4.00;99.90
11264;DHT22;5689;48.798;9.070;2023-04-03T06:46:04;3.90;99.90
11264;DHT22;5689;48.798;9.070;2023-04-03T06:48:32;4.00;99.90
11264;DHT22;5689;48.798;9.070;2023-04-03T06:51:00;4.50;99.90
11264;DHT22;5689;48.798;9.070;2023-04-03T06:53:27;4.60;99.90
11264;DHT22;5689;48.798;9.070;2023-04-03T06:55:56;4.40;99.90
11264;DHT22;5689;48.798;9.070;2023-04-03T06:58:24;4.20;99.90
11264;DHT22;5689;48.798;9.070;2023-04-03T07:00:54;4.10;99.90
11264;DHT22;5689;48.798;9.070;2023-04-03T07:03:22;4.00;99.90
11264;DHT22;5689;48.798;9.070;2023-04-03T07:05:50;4.10;99.90
11264;DHT22;5689;48.798;9.070;2023-04-03T07:08:19;4.40;99.90
11264;DHT22;5689;48.798;9.070;2023-04-03T07:10:47;4.50;99.90
11264;DHT22;5689;48.798;9.070;2023-04-03T07:13:15;4.60;99.90
11264;DHT22;5689;48.798;9.070;2023-04-03T07:15:43;4.50;99.90
11264;DHT22;5689;48.798;9.070;2023-04-03T07:18:13;4.60;99.90
11264;DHT22;5689;48.798;9.070;2023-04-03T07:20:41;4.50;99.90
11264;DHT22;5689;48.798;9.070;2023-04-03T07:23:09;4.50;99.90
11264;DHT22;5689;48.798;9.070;2023-04-03T07:25:42;4.90;99.90
11264;DHT22;5689;48.798;9.070;2023-04-03T07:28:10;5.10;99.90
11264;DHT22;5689;48.798;9.070;2023-04-03T07:30:43;5.30;99.90
11264;DHT22;5689;48.798;9.070;2023-04-03T07:33:14;5.30;99.90
11264;DHT22;5689;48.798;9.070;2023-04-03T07:35:43;5.00;99.90
11264;DHT22;5689;48.798;9.070;2023-04-03T07:38:12;5.10;99.90
11264;DHT22;5689;48.798;9.070;2023-04-03T07:40:40;5.00;99.90
11264;DHT22;5689;48.798;9.070;2023-04-03T07:43:13;5.00;99.90
11264;DHT22;5689;48.798;9.070;2023-04-03T07:45:42;5.10;99.90
11264;DHT22;5689;48.798;9.070;2023-04-03T07:48:11;5.50;99.90
11264;DHT22;5689;48.798;9.070;2023-04-03T07:50:41;5.70;99.90
11264;DHT22;5689;48.798;9.070;2023-04-03T07:53:09;5.90;99.90
11264;DHT22;5689;48.798;9.070;2023-04-03T07:55:38;5.90;99.90
11264;DHT22;5689;48.798;9.070;2023-04-03T07:58:10;5.60;99.90
11264;DHT22;5689;48.798;9.070;2023-04-03T08:00:38;5.60;99.90
11264;DHT22;5689;48.798;9.070;2023-04-03T08:03:08;5.50;99.90
11264;DHT22;5689;48.798;9.070;2023-04-03T08:05:38;5.20;99.90
11264;DHT22;5689;48.798;9.070;2023-04-03T08:08:09;5.30;99.90
11264;DHT22;5689;48.798;9.070;2023-04-03T08:10:37;5.70;99.90
11264;DHT22;5689;48.798;9.070;2023-04-03T08:13:07;5.80;99.90
11264;DHT22;5689;48.798;9.070;2023-04-03T08:15:35;5.80;99.90
11264;DHT22;5689;48.798;9.070;2023-04-03T08:18:04;5.20;99.90
11264;DHT22;5689;48.798;9.070;2023-04-03T08:20:32;5.00;99.90
11264;DHT22;5689;48.798;9.070;2023-04-03T08:23:00;5.00;99.90
11264;DHT22;5689;48.798;9.070;2023-04-03T08:25:29;5.80;99.90
11264;DHT22;5689;48.798;9.070;2023-04-03T08:27:58;6.20;99.90
11264;DHT22;5689;48.798;9.070;2023-04-03T08:30:26;6.30;99.90
11264;DHT22;5689;48.798;9.070;2023-04-03T08:32:53;6.30;99.90
11264;DHT22;5689;48.798;9.070;2023-04-03T08:35:22;6.30;99.90
11264;DHT22;5689;48.798;9.070;2023-04-03T08:37:50;6.20;99.90
11264;DHT22;5689;48.798;9.070;2023-04-03T08:40:18;5.80;99.90
11264;DHT22;5689;48.798;9.070;2023-04-03T08:42:57;6.00;99.90
11264;DHT22;5689;48.798;9.070;2023-04-03T08:45:42;6.40;99.90
11264;DHT22;5689;48.798;9.070;2023-04-03T08:48:15;6.60;99.90
11264;DHT22;5689;48.798;9.070;2023-04-03T08:50:47;6.40;99.90
11264;DHT22;5689;48.798;9.070;2023-04-03T08:53:20;6.60;99.90
11264;DHT22;5689;48.798;9.070;2023-04-03T08:55:50;6.60;99.90
11264;DHT22;5689;48.798;9.070;2023-04-03T08:58:22;7.10;99.90
11264;DHT22;5689;48.798;9.070;2023-04-03T09:00:53;6.60;99.90
11264;DHT22;5689;48.798;9.070;2023-04-03T09:03:23;7.00;99.90
11264;DHT22;5689;48.798;9.070;2023-04-03T09:05:57;6.60;99.90
11264;DHT22;5689;48.798;9.070;2023-04-03T09:08:28;6.10;99.90
11264;DHT22;5689;48.798;9.070;2023-04-03T09:11:09;6.30;99.90
11264;DHT22;5689;48.798;9.070;2023-04-03T09:13:47;6.70;99.90
11264;DHT22;5689;48.798;9.070;2023-04-03T09:16:27;6.50;99.90
11264;DHT22;5689;48.798;9.070;2023-04-03T09:19:09;6.60;99.90
11264;DHT22;5689;48.798;9.070;2023-04-03T09:21:39;6.10;99.90
11264;DHT22;5689;48.798;9.070;2023-04-03T09:24:11;6.60;99.90
11264;DHT22;5689;48.798;9.070;2023-04-03T09:26:43;6.60;99.90
11264;DHT22;5689;48.798;9.070;2023-04-03T09:29:18;7.00;99.90
11264;DHT22;5689;48.798;9.070;2023-04-03T09:31:49;7.10;99.90
11264;DHT22;5689;48.798;9.070;2023-04-03T09:34:22;6.80;99.90
11264;DHT22;5689;48.798;9.070;2023-04-03T09:36:52;7.20;99.90
11264;DHT22;5689;48.798;9.070;2023-04-03T09:39:22;7.40;99.90
11264;DHT22;5689;48.798;9.070;2023-04-03T09:41:59;6.30;99.90
11264;DHT22;5689;48.798;9.070;2023-04-03T09:44:31;5.70;99.90
11264;DHT22;5689;48.798;9.070;2023-04-03T09:47:00;5.50;99.90
11264;DHT22;5689;48.798;9.070;2023-04-03T09:49:44;5.50;99.90
11264;DHT22;5689;48.798;9.070;2023-04-03T09:52:20;5.80;99.90
11264;DHT22;5689;48.798;9.070;2023-04-03T09:54:49;6.40;99.90
11264;DHT22;5689;48.798;9.070;2023-04-03T09:57:17;6.60;99.90
11264;DHT22;5689;48.798;9.070;2023-04-03T09:59:57;6.90;99.90
11264;DHT22;5689;48.798;9.070;2023-04-03T10:02:33;7.00;99.90
11264;DHT22;5689;48.798;9.070;2023-04-03T10:05:03;6.30;99.90
11264;DHT22;5689;48.798;9.070;2023-04-03T10:07:35;6.40;99.90
11264;DHT22;5689;48.798;9.070;2023-04-03T10:10:17;6.60;99.90
11264;DHT22;5689;48.798;9.070;2023-04-03T10:12:46;6.40;99.90
11264;DHT22;5689;48.798;9.070;2023-04-03T10:15:17;6.20;99.90
11264;DHT22;5689;48.798;9.070;2023-04-03T10:17:53;6.50;99.90
11264;DHT22;5689;48.798;9.070;2023-04-03T10:20:29;6.60;99.90
11264;DHT22;5689;48.798;9.070;2023-04-03T10:23:09;6.40;99.90
11264;DHT22;5689;48.798;9.070;2023-04-03T10:25:50;6.40;99.90
11264;DHT22;5689;48.798;9.070;2023-04-03T10:28:27;6.50;99.90
11264;DHT22;5689;48.798;9.070;2023-04-03T10:31:03;7.30;99.90
11264;DHT22;5689;48.798;9.070;2023-04-03T10:33:43;8.00;99.80
11264;DHT22;5689;48.798;9.070;2023-04-03T10:36:22;7.30;98.60
11264;DHT22;5689;48.798;9.070;2023-04-03T10:38:58;7.00;98.50
11264;DHT22;5689;48.798;9.070;2023-04-03T10:41:39;7.30;99.90
11264;DHT22;5689;48.798;9.070;2023-04-03T10:44:16;8.00;99.10
11264;DHT22;5689;48.798;9.070;2023-04-03T10:46:52;7.70;97.70
11264;DHT22;5689;48.798;9.070;2023-04-03T10:49:32;7.70;97.60
11264;DHT22;5689;48.798;9.070;2023-04-03T10:52:12;7.50;97.80
11264;DHT22;5689;48.798;9.070;2023-04-03T10:54:49;6.80;98.40
11264;DHT22;5689;48.798;9.070;2023-04-03T10:57:23;6.70;98.20
11264;DHT22;5689;48.798;9.070;2023-04-03T10:59:55;6.40;98.40
11264;DHT22;5689;48.798;9.070;2023-04-03T11:02:28;6.30;99.60
11264;DHT22;5689;48.798;9.070;2023-04-03T11:05:01;6.30;99.90
11264;DHT22;5689;48.798;9.070;2023-04-03T11:07:35;6.20;99.80
11264;DHT22;5689;48.798;9.070;2023-04-03T11:10:10;6.20;99.40
11264;DHT22;5689;48.798;9.070;2023-04-03T11:12:44;6.50;98.80
11264;DHT22;5689;48.798;9.070;2023-04-03T11:15:16;6.70;98.30
11264;DHT22;5689;48.798;9.070;2023-04-03T11:17:49;6.40;97.80
11264;DHT22;5689;48.798;9.070;2023-04-03T11:20:23;6.50;97.80
11264;DHT22;5689;48.798;9.070;2023-04-03T11:23:00;6.80;97.50
11264;DHT22;5689;48.798;9.070;2023-04-03T11:25:35;6.90;96.50
11264;DHT22;5689;48.798;9.070;2023-04-03T11:28:06;6.50;96.50
11264;DHT22;5689;48.798;9.070;2023-04-03T11:30:42;6.60;98.40
11264;DHT22;5689;48.798;9.070;2023-04-03T11:33:23;7.10;96.50
11264;DHT22;5689;48.798;9.070;2023-04-03T11:35:57;6.70;95.90
11264;DHT22;5689;48.798;9.070;2023-04-03T11:38:31;6.90;95.20
11264;DHT22;5689;48.798;9.070;2023-04-03T11:41:05;7.10;96.00
11264;DHT22;5689;48.798;9.070;2023-04-03T11:43:40;7.00;95.70
11264;DHT22;5689;48.798;9.070;2023-04-03T11:46:09;6.80;96.40
11264;DHT22;5689;48.798;9.070;2023-04-03T11:48:49;6.40;96.70
11264;DHT22;5689;48.798;9.070;2023-04-03T11:51:41;6.30;97.10
11264;DHT22;5689;48.798;9.070;2023-04-03T11:54:42;6.40;96.90
11264;DHT22;5689;48.798;9.070;2023-04-03T11:57:43;6.80;97.30
11264;DHT22;5689;48.798;9.070;2023-04-03T12:00:47;7.20;96.70
11264;DHT22;5689;48.798;9.070;2023-04-03T12:09:56;6.70;94.30
11264;DHT22;5689;48.798;9.070;2023-04-03T12:12:29;7.00;93.60
11264;DHT22;5689;48.798;9.070;2023-04-03T12:15:22;7.80;94.00
11264;DHT22;5689;48.798;9.070;2023-04-03T12:17:54;8.20;93.30
11264;DHT22;5689;48.798;9.070;2023-04-03T12:20:54;7.60;93.30
11264;DHT22;5689;48.798;9.070;2023-04-03T12:23:31;7.20;93.90
11264;DHT22;5689;48.798;9.070;2023-04-03T12:26:04;6.80;94.80
11264;DHT22;5689;48.798;9.070;2023-04-03T12:28:39;7.50;94.90
11264;DHT22;5689;48.798;9.070;2023-04-03T12:31:10;7.60;94.40
11264;DHT22;5689;48.798;9.070;2023-04-03T12:34:01;6.90;92.40
11264;DHT22;5689;48.798;9.070;2023-04-03T12:36:39;6.80;93.10
11264;DHT22;5689;48.798;9.070;2023-04-03T12:39:36;6.60;92.40
11264;DHT22;5689;48.798;9.070;2023-04-03T12:42:32;6.90;92.30
11264;DHT22;5689;48.798;9.070;2023-04-03T12:45:16;7.20;92.50
11264;DHT22;5689;48.798;9.070;2023-04-03T12:47:45;7.10;92.40
11264;DHT22;5689;48.798;9.070;2023-04-03T12:50:20;7.80;92.50
11264;DHT22;5689;48.798;9.070;2023-04-03T12:52:55;8.50;91.80
11264;DHT22;5689;48.798;9.070;2023-04-03T12:55:25;8.80;90.90
11264;DHT22;5689;48.798;9.070;2023-04-03T12:57:54;8.20;90.50
11264;DHT22;5689;48.798;9.070;2023-04-03T13:00:29;8.00;91.70
11264;DHT22;5689;48.798;9.070;2023-04-03T13:03:00;7.90;90.60
11264;DHT22;5689;48.798;9.070;2023-04-03T13:05:37;7.50;92.30
11264;DHT22;5689;48.798;9.070;2023-04-03T13:08:10;7.50;91.50
11264;DHT22;5689;48.798;9.070;2023-04-03T13:10:51;7.00;92.00
11264;DHT22;5689;48.798;9.070;2023-04-03T13:13:22;7.30;92.30
11264;DHT22;5689;48.798;9.070;2023-04-03T13:15:50;7.60;92.40
11264;DHT22;5689;48.798;9.070;2023-04-03T13:18:34;7.40;92.00
11264;DHT22;5689;48.798;9.070;2023-04-03T13:21:06;7.30;91.90
11264;DHT22;5689;48.798;9.070;2023-04-03T13:23:38;7.40;91.00
11264;DHT22;5689;48.798;9.070;2023-04-03T13:26:08;7.50;92.00
11264;DHT22;5689;48.798;9.070;2023-04-03T13:28:39;7.20;91.40
11264;DHT22;5689;48.798;9.070;2023-04-03T13:31:18;8.10;91.40
11264;DHT22;5689;48.798;9.070;2023-04-03T13:33:54;9.10;90.50
11264;DHT22;5689;48.798;9.070;2023-04-03T13:36:33;9.80;89.30
11264;DHT22;5689;48.798;9.070;2023-04-03T13:39:05;9.40;89.50
11264;DHT22;5689;48.798;9.070;2023-04-03T13:41:35;8.40;89.20
11264;DHT22;5689;48.798;9.070;2023-04-03T13:44:31;8.00;89.70
11264;DHT22;5689;48.798;9.070;2023-04-03T13:47:16;8.70;90.20
11264;DHT22;5689;48.798;9.070;2023-04-03T13:49:59;8.90;89.10
11264;DHT22;5689;48.798;9.070;2023-04-03T13:52:31;9.20;89.50
11264;DHT22;5689;48.798;9.070;2023-04-03T13:55:16;8.60;88.90
11264;DHT22;5689;48.798;9.070;2023-04-03T13:57:50;8.60;86.70
11264;DHT22;5689;48.798;9.070;2023-04-03T14:00:27;8.50;86.50
11264;DHT22;5689;48.798;9.070;2023-04-03T14:02:56;7.60;87.50
11264;DHT22;5689;48.798;9.070;2023-04-03T14:05:25;8.10;88.40
11264;DHT22;5689;48.798;9.070;2023-04-03T14:07:54;8.40;86.20
11264;DHT22;5689;48.798;9.070;2023-04-03T14:10:22;8.50;85.60
11264;DHT22;5689;48.798;9.070;2023-04-03T14:12:50;7.80;84.60
11264;DHT22;5689;48.798;9.070;2023-04-03T14:15:22;8.10;87.90
11264;DHT22;5689;48.798;9.070;2023-04-03T14:17:52;8.60;84.90
11264;DHT22;5689;48.798;9.070;2023-04-03T14:20:22;8.60;83.30
11264;DHT22;5689;48.798;9.070;2023-04-03T14:22:52;7.40;84.90
11264;DHT22;5689;48.798;9.070;2023-04-03T14:25:21;7.50;87.40
11264;DHT22;5689;48.798;9.070;2023-04-03T14:27:51;7.70;87.70
11264;DHT22;5689;48.798;9.070;2023-04-03T14:30:25;7.70;87.10
11264;DHT22;5689;48.798;9.070;2023-04-03T14:32:53;7.80;87.50
11264;DHT22;5689;48.798;9.070;2023-04-03T14:35:22;7.50;86.30
11264;DHT22;5689;48.798;9.070;2023-04-03T14:37:52;7.40;87.30
11264;DHT22;5689;48.798;9.070;2023-04-03T14:40:25;7.60;85.50
11264;DHT22;5689;48.798;9.070;2023-04-03T14:42:54;7.60;85.00
11264;DHT22;5689;48.798;9.070;2023-04-03T14:45:25;7.80;84.20
11264;DHT22;5689;48.798;9.070;2023-04-03T14:47:54;7.40;81.80
11264;DHT22;5689;48.798;9.070;2023-04-03T14:50:26;7.00;84.20
11264;DHT22;5689;48.798;9.070;2023-04-03T14:52:56;7.60;84.80
11264;DHT22;5689;48.798;9.070;2023-04-03T14:55:25;8.20;83.40
11264;DHT22;5689;48.798;9.070;2023-04-03T14:57:53;8.20;82.90
11264;DHT22;5689;48.798;9.070;2023-04-03T15:00:22;8.20;82.10
11264;DHT22;5689;48.798;9.070;2023-04-03T15:02:52;9.70;81.90
11264;DHT22;5689;48.798;9.070;2023-04-03T15:05:20;11.30;77.10
11264;DHT22;5689;48.798;9.070;2023-04-03T15:07:50;11.80;74.30
11264;DHT22;5689;48.798;9.070;2023-04-03T15:10:22;13.20;71.20
11264;DHT22;5689;48.798;9.070;2023-04-03T15:12:51;12.30;68.10
11264;DHT22;5689;48.798;9.070;2023-04-03T15:15:21;12.00;70.80
11264;DHT22;5689;48.798;9.070;2023-04-03T15:17:53;9.80;71.40
11264;DHT22;5689;48.798;9.070;2023-04-03T15:20:23;9.00;78.00
11264;DHT22;5689;48.798;9.070;2023-04-03T15:22:52;9.30;76.10
11264;DHT22;5689;48.798;9.070;2023-04-03T15:25:20;8.60;76.40
11264;DHT22;5689;48.798;9.070;2023-04-03T15:27:48;9.30;77.30
11264;DHT22;5689;48.798;9.070;2023-04-03T15:30:18;9.30;74.10
11264;DHT22;5689;48.798;9.070;2023-04-03T15:32:46;8.40;76.10
11264;DHT22;5689;48.798;9.070;2023-04-03T15:35:16;8.00;76.00
11264;DHT22;5689;48.798;9.070;2023-04-03T15:37:45;8.20;77.80
11264;DHT22;5689;48.798;9.070;2023-04-03T15:40:14;8.30;77.10
11264;DHT22;5689;48.798;9.070;2023-04-03T15:42:42;7.50;77.90
11264;DHT22;5689;48.798;9.070;2023-04-03T15:45:10;7.10;80.70
11264;DHT22;5689;48.798;9.070;2023-04-03T15:47:38;6.70;80.30
11264;DHT22;5689;48.798;9.070;2023-04-03T15:50:07;6.70;80.70
11264;DHT22;5689;48.798;9.070;2023-04-03T15:52:37;6.60;81.10
11264;DHT22;5689;48.798;9.070;2023-04-03T15:55:05;6.60;81.80
11264;DHT22;5689;48.798;9.070;2023-04-03T15:57:33;6.50;81.30
11264;DHT22;5689;48.798;9.070;2023-04-03T16:00:07;6.40;80.50
11264;DHT22;5689;48.798;9.070;2023-04-03T16:02:36;6.70;82.10
11264;DHT22;5689;48.798;9.070;2023-04-03T16:05:05;8.10;78.40
11264;DHT22;5689;48.798;9.070;2023-04-03T16:07:38;9.10;72.80
11264;DHT22;5689;48.798;9.070;2023-04-03T16:10:08;10.60;71.70
11264;DHT22;5689;48.798;9.070;2023-04-03T16:12:36;12.20;66.90
11264;DHT22;5689;48.798;9.070;2023-04-03T16:15:06;11.60;66.10
11264;DHT22;5689;48.798;9.070;2023-04-03T16:17:35;11.90;65.50
11264;DHT22;5689;48.798;9.070;2023-04-03T16:20:05;12.00;66.10
11264;DHT22;5689;48.798;9.070;2023-04-03T16:22:34;12.20;64.80
11264;DHT22;5689;48.798;9.070;2023-04-03T16:25:05;12.50;66.00
11264;DHT22;5689;48.798;9.070;2023-04-03T16:27:34;10.00;67.80
11264;DHT22;5689;48.798;9.070;2023-04-03T16:30:03;9.20;72.80
11264;DHT22;5689;48.798;9.070;2023-04-03T16:32:33;9.80;70.00
11264;DHT22;5689;48.798;9.070;2023-04-03T16:35:01;8.90;71.10
11264;DHT22;5689;48.798;9.070;2023-04-03T16:37:29;7.70;73.40